createdAt,value
2019-02-19T00:00:51.827Z,2.94
2019-02-19T00:06:15.862Z,2.96
2019-02-19T00:11:40.866Z,2.73
2019-02-19T00:17:04.751Z,2.67
2019-02-19T00:22:28.681Z,2.69
2019-02-19T00:27:52.291Z,2.54
2019-02-19T00:33:17.453Z,2.33
2019-02-19T00:38:41.561Z,2.20
2019-02-19T00:44:06.558Z,2.22
2019-02-19T00:49:30.190Z,2.73
2019-02-19T00:54:54.402Z,2.41
2019-02-19T01:00:18.839Z,2.19
2019-02-19T01:05:43.581Z,2.14
2019-02-19T01:11:08.168Z,2.19
2019-02-19T01:16:32.053Z,2.16
2019-02-19T01:21:55.891Z,2.06
2019-02-19T01:27:20.165Z,2.08
2019-02-19T01:32:44.025Z,1.95
2019-02-19T01:38:07.984Z,1.90
2019-02-19T01:43:31.742Z,1.86
2019-02-19T01:48:56.555Z,2.01
2019-02-19T01:54:20.935Z,2.36
2019-02-19T01:59:45.649Z,2.90
2019-02-19T02:05:10.121Z,2.55
2019-02-19T02:10:34.882Z,2.85
2019-02-19T02:15:58.825Z,2.60
2019-02-19T02:21:22.715Z,3.16
2019-02-19T02:26:46.501Z,3.34
2019-02-19T02:32:10.700Z,3.72
2019-02-19T02:37:35.289Z,3.36
2019-02-19T02:42:59.674Z,3.48
2019-02-19T02:48:23.975Z,3.47
2019-02-19T02:53:48.566Z,3.07
2019-02-19T02:59:13.699Z,2.81
2019-02-19T03:04:37.386Z,2.49
2019-02-19T03:10:01.822Z,2.26
2019-02-19T03:15:27.254Z,2.27
2019-02-19T03:20:51.493Z,2.42
2019-02-19T03:26:15.580Z,2.67
2019-02-19T03:31:39.508Z,2.90
2019-02-19T03:37:03.658Z,3.19
2019-02-19T03:42:29.118Z,3.45
2019-02-19T03:47:53.677Z,3.51
2019-02-19T03:53:18.431Z,3.52
2019-02-19T03:58:43.275Z,3.53
2019-02-19T04:04:07.818Z,3.30
2019-02-19T04:09:32.974Z,3.28
2019-02-19T04:14:57.265Z,3.34
2019-02-19T04:20:21.619Z,3.47
2019-02-19T04:25:46.068Z,3.45
2019-02-19T04:31:10.821Z,3.65
2019-02-19T04:36:35.219Z,3.70
2019-02-19T04:41:59.847Z,3.60
2019-02-19T04:47:23.915Z,3.61
2019-02-19T04:52:48.594Z,3.77
2019-02-19T04:58:12.650Z,3.77
2019-02-19T05:03:37.841Z,3.70
2019-02-19T05:09:02.289Z,3.71
2019-02-19T05:14:28.341Z,3.82
2019-02-19T05:19:52.867Z,3.89
2019-02-19T05:25:16.507Z,3.80
2019-02-19T05:30:43.049Z,3.93
2019-02-19T05:36:06.614Z,3.73
2019-02-19T05:41:31.228Z,3.70
2019-02-19T05:46:55.822Z,3.75
2019-02-19T05:52:20.295Z,3.70
2019-02-19T05:57:45.092Z,3.57
2019-02-19T06:03:09.199Z,3.81
2019-02-19T06:08:34.118Z,4.00
2019-02-19T06:13:58.471Z,4.01
2019-02-19T06:19:23.264Z,3.96
2019-02-19T06:24:47.123Z,3.84
2019-02-19T06:30:12.686Z,3.83
2019-02-19T06:35:37.283Z,3.82
2019-02-19T06:41:02.015Z,3.88
2019-02-19T06:46:27.047Z,4.23
2019-02-19T06:51:50.429Z,4.45
2019-02-19T06:57:15.097Z,4.63
2019-02-19T07:03:16.453Z,4.65
2019-02-19T07:08:40.426Z,4.67
2019-02-19T07:14:04.817Z,4.78
2019-02-19T07:19:29.044Z,5.06
2019-02-19T07:24:54.420Z,5.27
2019-02-19T07:30:18.104Z,5.48
2019-02-19T07:35:42.753Z,5.79
2019-02-19T07:41:06.567Z,5.77
2019-02-19T07:46:30.942Z,5.74
2019-02-19T07:51:55.856Z,5.93
2019-02-19T07:57:19.603Z,5.94
2019-02-19T08:02:44.072Z,5.81
2019-02-19T08:08:08.890Z,5.72
2019-02-19T08:13:33.724Z,5.89
2019-02-19T08:18:57.499Z,6.01
2019-02-19T08:24:21.958Z,6.19
2019-02-19T08:29:45.905Z,6.25
2019-02-19T08:35:10.516Z,6.54
2019-02-19T08:40:34.821Z,6.74
2019-02-19T08:45:58.699Z,6.99
2019-02-19T08:51:23.166Z,7.42
2019-02-19T08:56:47.608Z,7.58
2019-02-19T09:02:11.807Z,7.66
2019-02-19T09:07:36.295Z,7.83
2019-02-19T09:13:00.437Z,7.92
2019-02-19T09:18:25.247Z,7.93
2019-02-19T09:23:50.336Z,8.12
2019-02-19T09:29:14.714Z,8.32
2019-02-19T09:34:39.181Z,8.51
2019-02-19T09:40:04.079Z,9.09
2019-02-19T09:45:28.642Z,9.12
2019-02-19T09:50:53.434Z,9.13
2019-02-19T09:56:18.012Z,8.91
2019-02-19T10:01:41.959Z,8.93
2019-02-19T10:07:06.858Z,8.85
2019-02-19T10:12:31.411Z,8.95
2019-02-19T10:17:55.546Z,9.23
2019-02-19T10:23:20.284Z,9.52
2019-02-19T10:28:44.619Z,9.43
2019-02-19T10:34:08.574Z,9.49
2019-02-19T10:39:32.429Z,9.42
2019-02-19T10:44:56.877Z,9.58
2019-02-19T10:50:21.763Z,9.58
2019-02-19T10:55:45.683Z,9.56
2019-02-19T11:01:09.627Z,9.62
2019-02-19T11:06:34.137Z,9.67
2019-02-19T11:11:58.176Z,9.76
2019-02-19T11:17:21.885Z,9.66
2019-02-19T11:22:46.600Z,9.62
2019-02-19T11:28:12.263Z,9.87
2019-02-19T11:33:36.735Z,9.78
2019-02-19T11:39:01.302Z,9.69
2019-02-19T11:44:26.266Z,9.75
2019-02-19T11:49:50.003Z,9.96
2019-02-19T11:55:14.787Z,9.91
2019-02-19T12:00:40.610Z,10.32
2019-02-19T12:06:05.352Z,10.09
2019-02-19T12:11:29.964Z,9.87
2019-02-19T12:16:54.833Z,9.89
2019-02-19T12:22:18.726Z,9.91
2019-02-19T12:27:43.019Z,9.72
2019-02-19T12:33:07.725Z,9.90
2019-02-19T12:38:31.669Z,9.69
2019-02-19T12:43:56.597Z,10.01
2019-02-19T12:49:21.365Z,10.15
2019-02-19T12:54:45.145Z,10.40
2019-02-19T13:00:11.762Z,10.13
2019-02-19T13:05:35.455Z,10.16
2019-02-19T13:11:00.042Z,10.21
2019-02-19T13:16:24.887Z,10.10
2019-02-19T13:21:49.621Z,9.93
2019-02-19T13:27:13.460Z,10.05
2019-02-19T13:32:37.962Z,10.23
2019-02-19T13:38:02.411Z,10.16
2019-02-19T13:43:26.230Z,10.52
2019-02-19T13:48:50.032Z,10.66
2019-02-19T13:54:21.749Z,9.99
2019-02-19T13:59:46.529Z,10.01
2019-02-19T14:05:11.481Z,9.99
2019-02-19T14:10:36.275Z,10.06
2019-02-19T14:16:09.470Z,9.92
2019-02-19T14:21:58.777Z,9.88
2019-02-19T14:27:33.404Z,9.95
2019-02-19T14:33:22.416Z,9.94
2019-02-19T14:39:07.810Z,10.00
2019-02-19T14:44:51.379Z,10.12
2019-02-19T14:50:44.902Z,9.99
2019-02-19T14:56:27.440Z,9.98
2019-02-19T15:02:08.079Z,10.35
2019-02-19T15:07:44.919Z,10.35
2019-02-19T15:13:24.191Z,10.48
2019-02-19T15:19:06.640Z,10.06
2019-02-19T15:24:55.323Z,9.83
2019-02-19T15:30:40.095Z,9.69
2019-02-19T15:36:23.831Z,9.67
2019-02-19T15:42:05.459Z,9.51
2019-02-19T15:47:47.397Z,9.42
2019-02-19T15:53:21.489Z,9.37
2019-02-19T15:58:53.262Z,9.27
2019-02-19T16:04:23.809Z,9.30
2019-02-19T16:09:54.893Z,9.22
2019-02-19T16:15:46.350Z,9.23
2019-02-19T16:21:45.136Z,9.25
2019-02-19T16:27:19.166Z,9.26
2019-02-19T16:33:02.982Z,9.22
2019-02-19T16:39:01.168Z,9.14
2019-02-19T16:44:40.757Z,9.13
2019-02-19T16:50:28.190Z,9.09
2019-02-19T16:56:13.999Z,9.05
2019-02-19T17:01:55.823Z,8.97
2019-02-19T17:07:37.478Z,8.90
2019-02-19T17:13:14.548Z,8.92
2019-02-19T17:19:03.709Z,8.82
2019-02-19T17:24:46.525Z,8.78
2019-02-19T17:30:29.633Z,8.83
2019-02-19T17:36:12.699Z,8.87
2019-02-19T17:42:00.035Z,8.89
2019-02-19T17:47:45.717Z,8.93
2019-02-19T17:53:27.242Z,8.88
2019-02-19T17:59:03.779Z,8.82
2019-02-19T18:04:37.734Z,8.78
2019-02-19T18:10:15.123Z,8.79
2019-02-19T18:15:50.581Z,8.77
2019-02-19T18:21:14.373Z,8.82
2019-02-19T18:26:38.195Z,8.78
2019-02-19T18:32:02.655Z,8.68
2019-02-19T18:37:26.361Z,8.68
2019-02-19T18:42:50.015Z,8.58
2019-02-19T18:48:16.047Z,8.60
2019-02-19T18:53:39.842Z,8.67
2019-02-19T18:59:06.225Z,8.69
2019-02-19T19:04:30.590Z,8.67
2019-02-19T19:09:54.392Z,8.69
2019-02-19T19:15:18.001Z,8.69
2019-02-19T19:20:42.685Z,8.67
2019-02-19T19:26:06.990Z,8.69
2019-02-19T19:31:33.928Z,8.66
2019-02-19T19:36:58.789Z,8.71
2019-02-19T19:42:23.502Z,8.76
2019-02-19T19:47:47.372Z,8.78
2019-02-19T19:53:11.824Z,8.66
2019-02-19T19:58:36.467Z,7.92
2019-02-19T20:04:00.784Z,7.15
2019-02-19T20:09:25.579Z,6.58
2019-02-19T20:14:49.258Z,6.18
2019-02-19T20:20:13.749Z,6.03
2019-02-19T20:25:38.472Z,6.03
2019-02-19T20:31:02.997Z,5.83
2019-02-19T20:36:27.331Z,5.76
2019-02-19T20:41:51.421Z,5.55
2019-02-19T20:47:16.497Z,5.37
2019-02-19T20:52:41.161Z,5.25
2019-02-19T20:58:05.885Z,5.24
2019-02-19T21:03:30.085Z,5.26
2019-02-19T21:08:54.899Z,5.14
2019-02-19T21:14:19.145Z,5.04
2019-02-19T21:19:43.981Z,4.95
2019-02-19T21:25:09.204Z,5.17
2019-02-19T21:30:33.715Z,5.25
2019-02-19T21:35:58.894Z,5.30
2019-02-19T21:41:23.297Z,5.52
2019-02-19T21:46:47.496Z,5.59
2019-02-19T21:52:12.153Z,5.52
2019-02-19T21:57:36.793Z,5.47
2019-02-19T22:03:01.074Z,5.35
2019-02-19T22:08:26.010Z,5.19
2019-02-19T22:13:51.142Z,5.20
2019-02-19T22:19:15.460Z,5.30
2019-02-19T22:24:41.236Z,5.35
2019-02-19T22:30:05.517Z,5.43
2019-02-19T22:35:29.556Z,5.37
2019-02-19T22:40:55.406Z,5.33
2019-02-19T22:46:20.242Z,5.35
2019-02-19T22:51:43.914Z,5.32
2019-02-19T22:57:08.074Z,5.27
2019-02-19T23:02:33.504Z,5.20
2019-02-19T23:07:58.426Z,5.03
2019-02-19T23:13:22.733Z,4.90
2019-02-19T23:18:46.386Z,4.88
2019-02-19T23:24:10.571Z,4.96
2019-02-19T23:29:34.174Z,5.06
2019-02-19T23:35:14.594Z,5.16
2019-02-19T23:40:38.429Z,5.13
2019-02-19T23:46:02.465Z,5.12
2019-02-19T23:51:26.916Z,5.13
2019-02-19T23:56:51.330Z,5.15
